createdAt,value
2022-09-16T00:00:51.873Z,15.05
2022-09-16T00:03:18.804Z,15.07
2022-09-16T00:05:50.675Z,15.09
2022-09-16T00:08:18.694Z,15.11
2022-09-16T00:10:45.501Z,15.10
2022-09-16T00:13:13.207Z,15.14
2022-09-16T00:15:44.432Z,15.14
2022-09-16T00:18:12.256Z,15.13
2022-09-16T00:20:44.628Z,15.15
2022-09-16T00:23:11.028Z,15.13
2022-09-16T00:25:37.453Z,15.12
2022-09-16T00:28:04.213Z,15.11
2022-09-16T00:30:30.639Z,15.07
2022-09-16T00:32:57.050Z,15.03
2022-09-16T00:35:23.601Z,14.99
2022-09-16T00:37:50.037Z,14.95
2022-09-16T00:40:16.581Z,14.90
2022-09-16T00:42:43.194Z,14.86
2022-09-16T00:45:22.403Z,14.81
2022-09-16T00:47:57.405Z,14.78
2022-09-16T00:50:31.094Z,14.74
2022-09-16T00:52:59.883Z,14.68
2022-09-16T00:55:35.950Z,14.67
2022-09-16T00:58:34.727Z,14.64
2022-09-16T01:01:03.736Z,14.60
2022-09-16T01:03:31.596Z,14.56
2022-09-16T01:05:58.025Z,14.53
2022-09-16T01:08:25.127Z,14.48
2022-09-16T01:10:52.274Z,14.44
2022-09-16T01:13:19.806Z,14.40
2022-09-16T01:16:10.904Z,14.40
2022-09-16T01:18:48.497Z,14.36
2022-09-16T01:21:36.533Z,14.33
2022-09-16T01:24:21.823Z,14.30
2022-09-16T01:27:12.632Z,14.29
2022-09-16T01:30:13.861Z,14.28
2022-09-16T01:33:04.969Z,14.28
2022-09-16T01:36:03.567Z,14.27
2022-09-16T01:38:45.054Z,14.28
2022-09-16T01:42:01.379Z,14.30
2022-09-16T01:44:33.745Z,14.30
2022-09-16T01:47:08.581Z,14.30
2022-09-16T01:49:46.571Z,14.29
2022-09-16T01:52:35.955Z,14.28
2022-09-16T01:55:07.307Z,14.29
2022-09-16T01:57:51.984Z,14.26
2022-09-16T02:00:19.312Z,14.24
2022-09-16T02:02:48.994Z,14.24
2022-09-16T02:05:22.938Z,14.21
2022-09-16T02:07:54.891Z,14.19
2022-09-16T02:10:43.814Z,14.20
2022-09-16T02:13:29.595Z,14.19
2022-09-16T02:16:03.598Z,14.21
2022-09-16T02:18:35.129Z,14.22
2022-09-16T02:21:05.329Z,14.24
2022-09-16T02:23:40.018Z,14.27
2022-09-16T02:26:11.854Z,14.31
2022-09-16T02:28:41.570Z,14.33
2022-09-16T02:31:09.807Z,14.35
2022-09-16T02:33:47.934Z,14.39
2022-09-16T02:36:20.966Z,14.42
2022-09-16T02:38:53.866Z,14.45
2022-09-16T02:41:20.507Z,14.45
2022-09-16T02:43:46.913Z,14.47
2022-09-16T02:46:20.028Z,14.49
2022-09-16T02:49:45.223Z,14.51
2022-09-16T02:52:14.998Z,14.51
2022-09-16T02:55:06.024Z,14.53
2022-09-16T02:57:32.992Z,14.52
2022-09-16T02:59:59.514Z,14.50
2022-09-16T03:02:26.120Z,14.49
2022-09-16T03:04:52.600Z,14.50
2022-09-16T03:07:19.044Z,14.50
2022-09-16T03:09:48.104Z,14.51
2022-09-16T03:12:41.906Z,14.52
2022-09-16T03:15:37.008Z,14.50
2022-09-16T03:18:09.992Z,14.50
2022-09-16T03:20:52.094Z,14.49
2022-09-16T03:23:36.046Z,14.51
2022-09-16T03:26:12.923Z,14.51
2022-09-16T03:29:04.307Z,14.51
2022-09-16T03:31:34.387Z,14.52
2022-09-16T03:34:20.694Z,14.53
2022-09-16T03:36:58.840Z,14.52
2022-09-16T03:39:25.545Z,14.49
2022-09-16T03:41:52.249Z,14.47
2022-09-16T03:44:18.847Z,14.46
2022-09-16T03:46:45.310Z,14.45
2022-09-16T03:49:12.479Z,14.41
2022-09-16T03:51:38.916Z,14.39
2022-09-16T03:54:05.475Z,14.38
2022-09-16T03:56:31.855Z,14.35
2022-09-16T03:58:58.626Z,14.34
2022-09-16T04:01:25.157Z,14.34
2022-09-16T04:03:52.550Z,14.32
2022-09-16T04:06:19.096Z,14.30
2022-09-16T04:08:45.528Z,14.28
2022-09-16T04:11:11.955Z,14.26
2022-09-16T04:13:38.373Z,14.24
2022-09-16T04:16:05.169Z,14.22
2022-09-16T04:18:32.985Z,14.20
2022-09-16T04:21:00.997Z,14.18
2022-09-16T04:23:29.175Z,14.17
2022-09-16T04:25:57.253Z,14.15
2022-09-16T04:28:23.742Z,14.14
2022-09-16T04:30:50.348Z,14.15
2022-09-16T04:33:16.784Z,14.15
2022-09-16T04:35:43.244Z,14.14
2022-09-16T04:38:09.701Z,14.15
2022-09-16T04:40:36.242Z,14.15
2022-09-16T04:43:02.683Z,14.15
2022-09-16T04:45:29.135Z,14.14
2022-09-16T04:47:57.585Z,14.13
2022-09-16T04:50:27.319Z,14.13
2022-09-16T04:52:53.727Z,14.12
2022-09-16T04:55:22.985Z,14.10
2022-09-16T04:57:50.199Z,14.09
2022-09-16T05:00:16.882Z,14.07
2022-09-16T05:02:46.750Z,14.04
2022-09-16T05:05:13.350Z,14.00
2022-09-16T05:07:39.776Z,13.98
2022-09-16T05:10:06.768Z,13.94
2022-09-16T05:12:33.201Z,13.92
2022-09-16T05:14:59.607Z,13.89
2022-09-16T05:17:49.238Z,13.86
2022-09-16T05:20:12.622Z,13.87
2022-09-16T05:22:39.203Z,13.83
2022-09-16T05:25:06.286Z,13.79
2022-09-16T05:27:34.023Z,13.76
2022-09-16T05:30:00.464Z,13.74
2022-09-16T05:32:27.556Z,13.72
2022-09-16T05:34:54.794Z,13.73
2022-09-16T05:37:21.252Z,13.73
2022-09-16T05:39:47.664Z,13.72
2022-09-16T05:42:14.091Z,13.73
2022-09-16T05:44:40.500Z,13.72
2022-09-16T05:47:06.930Z,13.70
2022-09-16T05:49:33.302Z,13.71
2022-09-16T05:51:59.678Z,13.69
2022-09-16T05:54:26.139Z,13.67
2022-09-16T05:56:52.874Z,13.67
2022-09-16T05:59:19.490Z,13.67
2022-09-16T06:01:46.012Z,13.68
2022-09-16T06:04:14.235Z,13.70
2022-09-16T06:06:45.748Z,13.72
2022-09-16T06:09:21.339Z,13.73
2022-09-16T06:11:50.352Z,13.74
2022-09-16T06:14:18.662Z,13.75
2022-09-16T06:16:46.097Z,13.78
2022-09-16T06:19:15.130Z,13.79
2022-09-16T06:21:43.719Z,13.81
2022-09-16T06:24:11.365Z,13.86
2022-09-16T06:26:39.549Z,13.90
2022-09-16T06:29:07.166Z,13.93
2022-09-16T06:31:34.654Z,13.99
2022-09-16T06:34:01.033Z,14.02
2022-09-16T06:36:29.846Z,14.08
2022-09-16T06:38:56.747Z,14.11
2022-09-16T06:41:23.645Z,14.16
2022-09-16T06:43:51.842Z,14.20
2022-09-16T06:46:23.789Z,14.25
2022-09-16T06:48:53.407Z,14.30
2022-09-16T06:51:23.257Z,14.34
2022-09-16T06:53:50.745Z,14.38
2022-09-16T06:56:19.815Z,14.40
2022-09-16T06:58:49.067Z,14.45
2022-09-16T07:01:18.602Z,14.49
2022-09-16T07:03:47.227Z,14.54
2022-09-16T07:06:15.255Z,14.58
2022-09-16T07:08:42.683Z,14.64
2022-09-16T07:11:29.327Z,14.71
2022-09-16T07:13:55.766Z,14.76
2022-09-16T07:16:24.544Z,14.82
2022-09-16T07:19:01.159Z,14.90
2022-09-16T07:21:30.152Z,14.96
2022-09-16T07:23:58.789Z,15.04
2022-09-16T07:26:28.162Z,15.12
2022-09-16T07:28:55.578Z,15.19
2022-09-16T07:31:25.463Z,15.25
2022-09-16T07:33:53.868Z,15.33
2022-09-16T07:36:23.257Z,15.42
2022-09-16T07:38:50.475Z,15.49
2022-09-16T07:41:19.099Z,15.56
2022-09-16T07:43:46.985Z,15.64
2022-09-16T07:46:18.825Z,15.74
2022-09-16T07:48:47.231Z,15.83
2022-09-16T07:51:16.502Z,15.93
2022-09-16T07:53:44.254Z,16.01
2022-09-16T07:56:18.727Z,16.11
2022-09-16T07:58:46.518Z,16.18
2022-09-16T08:01:15.289Z,16.25
2022-09-16T08:03:42.867Z,16.32
2022-09-16T08:06:12.806Z,16.37
2022-09-16T08:08:39.839Z,16.43
2022-09-16T08:11:09.961Z,16.47
2022-09-16T08:13:42.228Z,16.52
2022-09-16T08:16:13.598Z,16.56
2022-09-16T08:18:40.884Z,16.57
2022-09-16T08:21:12.498Z,16.61
2022-09-16T08:23:39.721Z,16.66
2022-09-16T08:26:08.492Z,16.72
2022-09-16T08:28:45.199Z,16.79
2022-09-16T08:31:21.309Z,16.91
2022-09-16T08:33:48.190Z,16.97
2022-09-16T08:36:21.059Z,17.03
2022-09-16T08:38:51.245Z,17.12
2022-09-16T08:41:39.540Z,17.21
2022-09-16T08:44:32.021Z,17.33
2022-09-16T08:47:17.242Z,17.43
2022-09-16T08:49:46.813Z,17.54
2022-09-16T08:52:35.765Z,17.68
2022-09-16T08:55:15.544Z,17.81
2022-09-16T08:58:08.157Z,17.91
2022-09-16T09:00:34.861Z,18.01
2022-09-16T09:03:18.744Z,18.11
2022-09-16T09:05:52.001Z,18.19
2022-09-16T09:08:34.753Z,18.26
2022-09-16T09:11:13.254Z,18.31
2022-09-16T09:13:59.576Z,18.34
2022-09-16T09:16:32.557Z,18.35
2022-09-16T09:19:13.526Z,18.41
2022-09-16T09:22:13.794Z,18.49
2022-09-16T09:25:07.655Z,18.60
2022-09-16T09:27:36.963Z,18.71
2022-09-16T09:30:17.394Z,18.84
2022-09-16T09:32:52.984Z,18.96
2022-09-16T09:35:25.471Z,19.05
2022-09-16T09:38:05.151Z,19.13
2022-09-16T09:41:07.027Z,19.23
2022-09-16T09:43:45.329Z,19.29
2022-09-16T09:46:26.404Z,19.36
2022-09-16T09:49:04.293Z,19.38
2022-09-16T09:51:36.067Z,19.41
2022-09-16T09:54:12.890Z,19.42
2022-09-16T09:56:45.531Z,19.44
2022-09-16T09:59:30.808Z,19.43
2022-09-16T10:02:03.736Z,19.44
2022-09-16T10:04:38.226Z,19.44
2022-09-16T10:07:05.819Z,19.43
2022-09-16T10:09:33.725Z,19.42
2022-09-16T10:12:01.147Z,19.42
2022-09-16T10:14:37.721Z,19.43
2022-09-16T10:17:17.057Z,19.48
2022-09-16T10:19:57.740Z,19.51
2022-09-16T10:22:30.311Z,19.56
2022-09-16T10:24:59.207Z,19.60
2022-09-16T10:27:29.604Z,19.67
2022-09-16T10:30:17.269Z,19.76
2022-09-16T10:33:07.754Z,19.85
2022-09-16T10:35:39.278Z,19.96
2022-09-16T10:38:46.218Z,20.07
2022-09-16T10:41:32.544Z,20.16
2022-09-16T10:44:01.288Z,20.18
2022-09-16T10:47:02.389Z,20.16
2022-09-16T10:49:53.850Z,20.10
2022-09-16T10:52:24.968Z,20.03
2022-09-16T10:54:51.518Z,19.98
2022-09-16T10:57:30.516Z,20.01
2022-09-16T11:00:18.294Z,20.07
2022-09-16T11:03:06.670Z,20.17
2022-09-16T11:06:00.715Z,20.32
2022-09-16T11:08:54.843Z,20.46
2022-09-16T11:11:46.305Z,20.57
2022-09-16T11:14:24.330Z,20.57
2022-09-16T11:17:28.749Z,20.49
2022-09-16T11:20:04.241Z,20.23
2022-09-16T11:22:47.610Z,19.82
2022-09-16T11:25:23.166Z,19.15
2022-09-16T11:28:29.718Z,18.35
2022-09-16T11:31:08.255Z,17.60
2022-09-16T11:33:55.755Z,16.98
2022-09-16T11:36:37.802Z,16.43
2022-09-16T11:39:46.489Z,15.93
2022-09-16T11:42:32.357Z,15.50
2022-09-16T11:45:41.898Z,15.19
2022-09-16T11:48:48.054Z,14.92
2022-09-16T11:51:27.243Z,14.72
2022-09-16T11:54:15.596Z,14.64
2022-09-16T11:56:50.447Z,14.62
2022-09-16T11:59:53.698Z,14.66
2022-09-16T12:02:27.525Z,14.75
2022-09-16T12:05:02.746Z,14.84
2022-09-16T12:07:29.446Z,14.97
2022-09-16T12:10:05.939Z,15.11
2022-09-16T12:12:37.998Z,15.27
2022-09-16T12:15:37.247Z,15.48
2022-09-16T12:18:13.325Z,15.70
2022-09-16T12:20:46.908Z,15.89
2022-09-16T12:23:30.715Z,16.10
2022-09-16T12:26:09.987Z,16.29
2022-09-16T12:28:56.658Z,16.48
2022-09-16T12:31:48.811Z,16.65
2022-09-16T12:34:22.311Z,16.81
2022-09-16T12:36:55.918Z,16.96
2022-09-16T12:39:22.326Z,17.08
2022-09-16T12:42:10.374Z,17.23
2022-09-16T12:45:02.365Z,17.36
2022-09-16T12:47:50.664Z,17.48
2022-09-16T12:50:48.698Z,17.62
2022-09-16T12:54:05.927Z,17.74
2022-09-16T12:56:32.309Z,17.86
2022-09-16T12:59:01.399Z,17.97
2022-09-16T13:01:35.217Z,18.07
2022-09-16T13:04:10.682Z,18.16
2022-09-16T13:06:45.074Z,18.23
2022-09-16T13:09:21.492Z,18.32
2022-09-16T13:12:44.927Z,18.37
2022-09-16T13:15:31.731Z,18.46
2022-09-16T13:18:19.398Z,18.53
2022-09-16T13:20:54.496Z,18.60
2022-09-16T13:23:24.917Z,18.68
2022-09-16T13:25:58.181Z,18.74
2022-09-16T13:28:33.458Z,18.79
2022-09-16T13:31:20.184Z,18.83
2022-09-16T13:33:59.001Z,18.85
2022-09-16T13:36:25.486Z,18.88
2022-09-16T13:38:54.652Z,18.91
2022-09-16T13:41:31.768Z,18.96
2022-09-16T13:43:59.287Z,19.00
2022-09-16T13:46:37.276Z,19.07
2022-09-16T13:49:04.279Z,19.09
2022-09-16T13:51:36.125Z,19.17
2022-09-16T13:54:04.366Z,19.25
2022-09-16T13:57:03.246Z,19.38
2022-09-16T13:59:44.591Z,19.49
2022-09-16T14:02:11.032Z,19.60
2022-09-16T14:04:56.894Z,19.71
2022-09-16T14:07:42.250Z,19.76
2022-09-16T14:10:35.843Z,19.78
2022-09-16T14:13:18.722Z,19.76
2022-09-16T14:15:58.215Z,19.70
2022-09-16T14:18:30.648Z,19.62
2022-09-16T14:21:22.511Z,19.59
2022-09-16T14:23:48.998Z,19.56
2022-09-16T14:26:20.927Z,19.53
2022-09-16T14:28:47.846Z,19.49
2022-09-16T14:31:31.445Z,19.42
2022-09-16T14:34:07.475Z,19.32
2022-09-16T14:36:36.233Z,19.25
2022-09-16T14:39:08.991Z,19.10
2022-09-16T14:41:43.264Z,18.93
2022-09-16T14:44:18.759Z,18.77
2022-09-16T14:46:49.876Z,18.64
2022-09-16T14:49:18.033Z,18.56
2022-09-16T14:51:49.385Z,18.51
2022-09-16T14:54:18.636Z,18.47
2022-09-16T14:57:02.470Z,18.48
2022-09-16T14:59:37.634Z,18.50
2022-09-16T15:02:12.230Z,18.52
2022-09-16T15:04:40.886Z,18.55
2022-09-16T15:07:15.110Z,18.60
2022-09-16T15:09:53.535Z,18.62
2022-09-16T15:12:26.042Z,18.63
2022-09-16T15:14:52.924Z,18.60
2022-09-16T15:17:21.837Z,18.60
2022-09-16T15:19:57.954Z,18.59
2022-09-16T15:22:25.475Z,18.55
2022-09-16T15:24:55.783Z,18.56
2022-09-16T15:27:24.789Z,18.58
2022-09-16T15:29:56.756Z,18.60
2022-09-16T15:32:27.495Z,18.65
2022-09-16T15:35:10.446Z,18.75
2022-09-16T15:37:37.366Z,18.80
2022-09-16T15:40:10.992Z,18.91
2022-09-16T15:42:37.962Z,18.97
2022-09-16T15:45:17.276Z,19.07
2022-09-16T15:48:00.669Z,19.14
2022-09-16T15:50:30.978Z,19.19
2022-09-16T15:53:02.854Z,19.24
2022-09-16T15:55:37.499Z,19.27
2022-09-16T15:58:18.958Z,19.32
2022-09-16T16:01:17.777Z,19.32
2022-09-16T16:03:50.112Z,19.30
2022-09-16T16:06:16.649Z,19.26
2022-09-16T16:08:46.948Z,19.19
2022-09-16T16:11:23.519Z,19.03
2022-09-16T16:13:53.190Z,18.82
2022-09-16T16:16:19.848Z,18.58
2022-09-16T16:18:46.514Z,18.33
2022-09-16T16:21:16.114Z,18.12
2022-09-16T16:23:43.520Z,17.89
2022-09-16T16:26:11.427Z,17.73
2022-09-16T16:28:38.638Z,17.59
2022-09-16T16:31:13.120Z,17.48
2022-09-16T16:33:45.213Z,17.40
2022-09-16T16:36:16.849Z,17.34
2022-09-16T16:38:43.678Z,17.30
2022-09-16T16:41:12.165Z,17.26
2022-09-16T16:43:39.524Z,17.24
2022-09-16T16:46:06.102Z,17.22
2022-09-16T16:48:32.720Z,17.21
2022-09-16T16:51:02.314Z,17.21
2022-09-16T16:53:28.986Z,17.19
2022-09-16T16:56:02.380Z,17.18
2022-09-16T16:58:35.970Z,17.17
2022-09-16T17:01:16.413Z,17.17
2022-09-16T17:03:49.225Z,17.16
2022-09-16T17:06:17.347Z,17.15
2022-09-16T17:08:43.762Z,17.13
2022-09-16T17:11:16.159Z,17.13
2022-09-16T17:13:44.955Z,17.12
2022-09-16T17:16:14.018Z,17.11
2022-09-16T17:18:41.913Z,17.10
2022-09-16T17:21:17.570Z,17.11
2022-09-16T17:23:44.511Z,17.10
2022-09-16T17:26:11.957Z,17.10
2022-09-16T17:28:39.753Z,17.10
2022-09-16T17:31:24.439Z,17.11
2022-09-16T17:33:55.942Z,17.10
2022-09-16T17:36:24.406Z,17.09
2022-09-16T17:39:16.815Z,17.09
2022-09-16T17:41:45.566Z,17.07
2022-09-16T17:44:13.755Z,17.07
2022-09-16T17:46:42.006Z,17.05
2022-09-16T17:49:13.825Z,17.04
2022-09-16T17:51:40.717Z,17.00
2022-09-16T17:54:08.682Z,16.97
2022-09-16T17:56:35.342Z,16.92
2022-09-16T17:59:01.849Z,16.89
2022-09-16T18:01:28.474Z,16.84
2022-09-16T18:03:56.068Z,16.81
2022-09-16T18:06:28.420Z,16.77
2022-09-16T18:08:55.440Z,16.74
2022-09-16T18:11:22.003Z,16.70
2022-09-16T18:13:48.908Z,16.67
2022-09-16T18:16:18.390Z,16.66
2022-09-16T18:18:45.962Z,16.63
2022-09-16T18:21:15.693Z,16.60
2022-09-16T18:23:42.526Z,16.56
2022-09-16T18:26:12.569Z,16.54
2022-09-16T18:29:05.674Z,16.50
2022-09-16T18:31:32.994Z,16.45
2022-09-16T18:33:59.514Z,16.40
2022-09-16T18:36:26.993Z,16.34
2022-09-16T18:38:54.762Z,16.26
2022-09-16T18:41:24.214Z,16.18
2022-09-16T18:43:56.727Z,16.10
2022-09-16T18:46:26.882Z,15.99
2022-09-16T18:48:54.483Z,15.90
2022-09-16T18:51:25.354Z,15.85
2022-09-16T18:53:55.538Z,15.74
2022-09-16T18:56:24.778Z,15.67
2022-09-16T18:59:17.302Z,15.58
2022-09-16T19:01:39.973Z,15.50
2022-09-16T19:04:09.687Z,15.42
2022-09-16T19:06:41.735Z,15.35
2022-09-16T19:09:12.032Z,15.28
2022-09-16T19:11:39.700Z,15.20
2022-09-16T19:14:12.412Z,15.14
2022-09-16T19:16:40.498Z,15.07
2022-09-16T19:19:08.760Z,15.01
2022-09-16T19:21:45.068Z,14.97
2022-09-16T19:24:17.747Z,14.89
2022-09-16T19:26:46.127Z,14.83
2022-09-16T19:29:13.887Z,14.79
2022-09-16T19:31:42.236Z,14.76
2022-09-16T19:34:09.134Z,14.71
2022-09-16T19:36:36.953Z,14.67
2022-09-16T19:39:05.278Z,14.64
2022-09-16T19:41:33.470Z,14.64
2022-09-16T19:44:02.494Z,14.62
2022-09-16T19:46:32.357Z,14.62
2022-09-16T19:48:59.195Z,14.61
2022-09-16T19:51:25.923Z,14.63
2022-09-16T19:53:53.746Z,14.62
2022-09-16T19:56:26.079Z,14.62
2022-09-16T19:58:53.902Z,14.60
2022-09-16T20:01:24.791Z,14.58
2022-09-16T20:03:51.918Z,14.57
2022-09-16T20:06:24.865Z,14.57
2022-09-16T20:08:59.931Z,14.56
2022-09-16T20:11:29.340Z,14.54
2022-09-16T20:13:59.138Z,14.53
2022-09-16T20:16:28.285Z,14.49
2022-09-16T20:18:55.050Z,14.46
2022-09-16T20:21:25.531Z,14.44
2022-09-16T20:23:53.414Z,14.40
2022-09-16T20:26:21.622Z,14.37
2022-09-16T20:28:52.718Z,14.36
2022-09-16T20:31:24.834Z,14.33
2022-09-16T20:33:52.131Z,14.30
2022-09-16T20:36:23.897Z,14.27
2022-09-16T20:38:51.518Z,14.23
2022-09-16T20:41:27.812Z,14.21
2022-09-16T20:43:54.328Z,14.17
2022-09-16T20:46:35.418Z,14.17
2022-09-16T20:49:05.282Z,14.11
2022-09-16T20:51:33.494Z,14.09
2022-09-16T20:54:07.510Z,14.05
2022-09-16T20:56:38.261Z,14.03
2022-09-16T20:59:07.474Z,14.01
2022-09-16T21:01:34.771Z,14.00
2022-09-16T21:04:04.729Z,13.98
2022-09-16T21:06:32.606Z,13.97
2022-09-16T21:09:01.853Z,13.98
2022-09-16T21:11:30.090Z,13.98
2022-09-16T21:14:01.496Z,13.98
2022-09-16T21:16:31.864Z,13.99
2022-09-16T21:19:00.278Z,13.99
2022-09-16T21:21:28.185Z,13.99
2022-09-16T21:23:57.693Z,13.99
2022-09-16T21:26:32.207Z,14.01
2022-09-16T21:29:04.046Z,14.02
2022-09-16T21:31:37.185Z,14.01
2022-09-16T21:34:06.318Z,14.02
2022-09-16T21:36:33.759Z,14.01
2022-09-16T21:39:01.447Z,14.01
2022-09-16T21:41:28.161Z,14.01
2022-09-16T21:43:56.794Z,14.02
2022-09-16T21:46:28.864Z,14.02
2022-09-16T21:48:58.305Z,14.02
2022-09-16T21:51:24.786Z,14.00
2022-09-16T21:53:51.318Z,14.00
2022-09-16T21:56:20.626Z,13.99
2022-09-16T21:58:48.841Z,13.97
2022-09-16T22:01:20.861Z,13.99
2022-09-16T22:03:52.685Z,13.98
2022-09-16T22:06:19.355Z,13.98
2022-09-16T22:08:49.110Z,13.98
2022-09-16T22:11:18.334Z,13.97
2022-09-16T22:13:45.395Z,13.96
2022-09-16T22:16:18.460Z,13.98
2022-09-16T22:18:44.930Z,13.96
2022-09-16T22:21:14.643Z,13.98
2022-09-16T22:23:41.352Z,13.98
2022-09-16T22:26:10.708Z,13.96
2022-09-16T22:28:38.038Z,13.95
2022-09-16T22:31:08.337Z,13.95
2022-09-16T22:33:36.193Z,13.94
2022-09-16T22:36:06.751Z,13.96
2022-09-16T22:38:33.483Z,13.94
2022-09-16T22:41:05.679Z,13.95
2022-09-16T22:43:40.132Z,13.94
2022-09-16T22:46:09.041Z,13.94
2022-09-16T22:48:35.814Z,13.92
2022-09-16T22:51:03.497Z,13.93
2022-09-16T22:53:30.802Z,13.92
2022-09-16T22:55:58.018Z,13.93
2022-09-16T22:58:25.190Z,13.94
2022-09-16T23:00:53.073Z,13.94
2022-09-16T23:03:20.571Z,13.94
2022-09-16T23:05:55.409Z,13.95
2022-09-16T23:08:22.349Z,13.93
2022-09-16T23:10:49.037Z,13.94
2022-09-16T23:13:15.513Z,13.93
2022-09-16T23:15:41.957Z,13.93
2022-09-16T23:18:08.371Z,13.93
2022-09-16T23:20:35.047Z,13.93
2022-09-16T23:23:02.041Z,13.94
2022-09-16T23:25:28.474Z,13.94
2022-09-16T23:27:55.255Z,13.95
2022-09-16T23:30:21.863Z,13.96
2022-09-16T23:32:48.411Z,13.96
2022-09-16T23:35:14.887Z,13.97
2022-09-16T23:37:41.800Z,13.97
2022-09-16T23:40:09.137Z,13.97
2022-09-16T23:42:35.990Z,13.98
2022-09-16T23:45:02.954Z,13.97
2022-09-16T23:47:29.625Z,13.97
2022-09-16T23:49:56.429Z,13.97
2022-09-16T23:52:22.811Z,13.95
2022-09-16T23:54:49.229Z,13.96
2022-09-16T23:57:15.640Z,13.94
2022-09-16T23:59:42.051Z,13.93
